sensor_id;sensor_type;location;lat;lon;timestamp;temperature;humidity
83405;SHT30;73331;48.168;20.776;2024-03-25T00:01:28;5.23;65.01
83405;SHT30;73331;48.168;20.776;2024-03-25T00:02:59;5.47;64.10
83405;SHT30;73331;48.168;20.776;2024-03-25T00:04:29;5.80;63.59
83405;SHT30;73331;48.168;20.776;2024-03-25T00:06:00;5.90;63.53
83405;SHT30;73331;48.168;20.776;2024-03-25T00:07:30;5.89;63.82
83405;SHT30;73331;48.168;20.776;2024-03-25T00:09:02;5.85;64.19
83405;SHT30;73331;48.168;20.776;2024-03-25T00:10:33;5.78;64.41
83405;SHT30;73331;48.168;20.776;2024-03-25T00:12:04;5.63;64.77
83405;SHT30;73331;48.168;20.776;2024-03-25T00:13:34;5.66;64.99
83405;SHT30;73331;48.168;20.776;2024-03-25T00:15:05;5.52;65.47
83405;SHT30;73331;48.168;20.776;2024-03-25T00:16:36;5.35;66.18
83405;SHT30;73331;48.168;20.776;2024-03-25T00:18:07;5.48;65.62
83405;SHT30;73331;48.168;20.776;2024-03-25T00:19:37;4.87;67.34
83405;SHT30;73331;48.168;20.776;2024-03-25T00:21:08;4.76;68.68
83405;SHT30;73331;48.168;20.776;2024-03-25T00:22:38;4.52;69.16
83405;SHT30;73331;48.168;20.776;2024-03-25T00:24:09;4.38;69.50
83405;SHT30;73331;48.168;20.776;2024-03-25T00:25:40;4.53;68.54
83405;SHT30;73331;48.168;20.776;2024-03-25T00:27:10;4.36;69.53
83405;SHT30;73331;48.168;20.776;2024-03-25T00:28:41;4.30;69.87
83405;SHT30;73331;48.168;20.776;2024-03-25T00:30:11;4.49;69.36
83405;SHT30;73331;48.168;20.776;2024-03-25T00:31:42;4.45;69.19
83405;SHT30;73331;48.168;20.776;2024-03-25T00:33:13;4.22;70.20
83405;SHT30;73331;48.168;20.776;2024-03-25T00:34:43;4.15;70.58
83405;SHT30;73331;48.168;20.776;2024-03-25T00:36:14;4.81;68.22
83405;SHT30;73331;48.168;20.776;2024-03-25T00:37:44;4.64;68.63
83405;SHT30;73331;48.168;20.776;2024-03-25T00:39:15;4.54;68.76
83405;SHT30;73331;48.168;20.776;2024-03-25T00:40:46;4.38;69.69
83405;SHT30;73331;48.168;20.776;2024-03-25T00:42:17;4.77;68.96
83405;SHT30;73331;48.168;20.776;2024-03-25T00:43:47;4.84;68.01
83405;SHT30;73331;48.168;20.776;2024-03-25T00:45:18;4.57;69.43
83405;SHT30;73331;48.168;20.776;2024-03-25T00:46:48;4.30;70.37
83405;SHT30;73331;48.168;20.776;2024-03-25T00:48:19;4.19;71.11
83405;SHT30;73331;48.168;20.776;2024-03-25T00:49:49;4.09;71.42
83405;SHT30;73331;48.168;20.776;2024-03-25T00:51:19;4.06;71.59
83405;SHT30;73331;48.168;20.776;2024-03-25T00:52:50;4.15;71.44
83405;SHT30;73331;48.168;20.776;2024-03-25T00:54:21;4.06;71.83
83405;SHT30;73331;48.168;20.776;2024-03-25T00:55:52;4.02;72.07
83405;SHT30;73331;48.168;20.776;2024-03-25T00:57:22;3.98;72.41
83405;SHT30;73331;48.168;20.776;2024-03-25T00:58:53;3.97;72.47
83405;SHT30;73331;48.168;20.776;2024-03-25T01:00:23;3.99;72.44
83405;SHT30;73331;48.168;20.776;2024-03-25T01:01:54;4.03;72.46
83405;SHT30;73331;48.168;20.776;2024-03-25T01:03:25;4.01;72.55
83405;SHT30;73331;48.168;20.776;2024-03-25T01:04:55;3.99;72.80
83405;SHT30;73331;48.168;20.776;2024-03-25T01:06:26;3.97;72.85
83405;SHT30;73331;48.168;20.776;2024-03-25T01:07:57;3.98;73.06
83405;SHT30;73331;48.168;20.776;2024-03-25T01:09:27;3.94;73.23
83405;SHT30;73331;48.168;20.776;2024-03-25T01:10:58;3.94;73.22
83405;SHT30;73331;48.168;20.776;2024-03-25T01:12:28;3.87;73.44
83405;SHT30;73331;48.168;20.776;2024-03-25T01:13:59;3.78;73.68
83405;SHT30;73331;48.168;20.776;2024-03-25T01:15:29;3.75;73.97
83405;SHT30;73331;48.168;20.776;2024-03-25T01:17:00;3.70;74.28
83405;SHT30;73331;48.168;20.776;2024-03-25T01:18:30;3.68;74.53
83405;SHT30;73331;48.168;20.776;2024-03-25T01:20:01;3.65;74.58
83405;SHT30;73331;48.168;20.776;2024-03-25T01:21:31;3.60;74.74
83405;SHT30;73331;48.168;20.776;2024-03-25T01:23:02;3.53;74.93
83405;SHT30;73331;48.168;20.776;2024-03-25T01:24:33;3.50;75.11
83405;SHT30;73331;48.168;20.776;2024-03-25T01:26:03;3.46;75.40
83405;SHT30;73331;48.168;20.776;2024-03-25T01:27:34;3.40;75.54
83405;SHT30;73331;48.168;20.776;2024-03-25T01:29:04;3.34;75.87
83405;SHT30;73331;48.168;20.776;2024-03-25T01:30:35;3.40;76.05
83405;SHT30;73331;48.168;20.776;2024-03-25T01:32:09;3.36;76.03
83405;SHT30;73331;48.168;20.776;2024-03-25T01:33:39;3.34;76.23
83405;SHT30;73331;48.168;20.776;2024-03-25T01:35:10;3.33;76.24
83405;SHT30;73331;48.168;20.776;2024-03-25T01:36:41;3.38;76.11
83405;SHT30;73331;48.168;20.776;2024-03-25T01:38:12;3.37;76.11
83405;SHT30;73331;48.168;20.776;2024-03-25T01:39:43;3.34;76.02
83405;SHT30;73331;48.168;20.776;2024-03-25T01:41:13;3.31;76.19
83405;SHT30;73331;48.168;20.776;2024-03-25T01:42:59;3.27;76.12
83405;SHT30;73331;48.168;20.776;2024-03-25T01:44:30;3.23;76.41
83405;SHT30;73331;48.168;20.776;2024-03-25T01:46:01;3.17;76.40
83405;SHT30;73331;48.168;20.776;2024-03-25T01:47:31;3.13;76.73
83405;SHT30;73331;48.168;20.776;2024-03-25T01:49:04;3.10;76.90
83405;SHT30;73331;48.168;20.776;2024-03-25T01:50:38;3.14;76.74
83405;SHT30;73331;48.168;20.776;2024-03-25T01:52:09;3.13;76.70
83405;SHT30;73331;48.168;20.776;2024-03-25T01:53:40;3.12;77.02
83405;SHT30;73331;48.168;20.776;2024-03-25T01:55:16;3.09;77.00
83405;SHT30;73331;48.168;20.776;2024-03-25T01:56:47;3.10;76.93
83405;SHT30;73331;48.168;20.776;2024-03-25T01:58:18;3.16;76.88
83405;SHT30;73331;48.168;20.776;2024-03-25T01:59:49;3.27;76.82
83405;SHT30;73331;48.168;20.776;2024-03-25T02:01:20;3.26;76.71
83405;SHT30;73331;48.168;20.776;2024-03-25T02:02:51;3.26;76.73
83405;SHT30;73331;48.168;20.776;2024-03-25T02:04:22;3.27;76.69
83405;SHT30;73331;48.168;20.776;2024-03-25T02:06:01;3.30;77.01
83405;SHT30;73331;48.168;20.776;2024-03-25T02:07:35;3.30;76.85
83405;SHT30;73331;48.168;20.776;2024-03-25T02:09:07;3.26;76.95
83405;SHT30;73331;48.168;20.776;2024-03-25T02:10:39;3.22;76.95
83405;SHT30;73331;48.168;20.776;2024-03-25T02:12:11;3.54;75.87
83405;SHT30;73331;48.168;20.776;2024-03-25T02:13:42;3.44;75.79
83405;SHT30;73331;48.168;20.776;2024-03-25T02:15:13;3.28;76.54
83405;SHT30;73331;48.168;20.776;2024-03-25T02:16:43;3.50;76.54
83405;SHT30;73331;48.168;20.776;2024-03-25T02:18:16;3.23;76.53
83405;SHT30;73331;48.168;20.776;2024-03-25T02:19:46;3.28;76.89
83405;SHT30;73331;48.168;20.776;2024-03-25T02:21:17;3.43;76.36
83405;SHT30;73331;48.168;20.776;2024-03-25T02:22:47;3.40;76.43
83405;SHT30;73331;48.168;20.776;2024-03-25T02:24:19;3.51;75.70
83405;SHT30;73331;48.168;20.776;2024-03-25T02:25:51;3.73;75.53
83405;SHT30;73331;48.168;20.776;2024-03-25T02:27:22;3.68;75.30
83405;SHT30;73331;48.168;20.776;2024-03-25T02:28:53;3.79;75.59
83405;SHT30;73331;48.168;20.776;2024-03-25T02:30:24;4.12;74.23
83405;SHT30;73331;48.168;20.776;2024-03-25T02:31:54;3.97;74.52
83405;SHT30;73331;48.168;20.776;2024-03-25T02:33:24;3.81;74.62
83405;SHT30;73331;48.168;20.776;2024-03-25T02:34:56;3.64;75.48
83405;SHT30;73331;48.168;20.776;2024-03-25T02:36:27;3.55;76.30
83405;SHT30;73331;48.168;20.776;2024-03-25T02:37:58;3.51;76.30
83405;SHT30;73331;48.168;20.776;2024-03-25T02:39:28;3.82;75.70
83405;SHT30;73331;48.168;20.776;2024-03-25T02:40:59;3.97;74.71
83405;SHT30;73331;48.168;20.776;2024-03-25T02:42:30;3.65;75.39
83405;SHT30;73331;48.168;20.776;2024-03-25T02:44:00;3.43;76.00
83405;SHT30;73331;48.168;20.776;2024-03-25T02:45:31;3.12;77.22
83405;SHT30;73331;48.168;20.776;2024-03-25T02:47:01;3.07;77.29
83405;SHT30;73331;48.168;20.776;2024-03-25T02:48:32;2.92;77.89
83405;SHT30;73331;48.168;20.776;2024-03-25T02:50:03;2.75;78.51
83405;SHT30;73331;48.168;20.776;2024-03-25T02:51:33;2.72;78.92
83405;SHT30;73331;48.168;20.776;2024-03-25T02:53:04;2.65;79.15
83405;SHT30;73331;48.168;20.776;2024-03-25T02:54:35;2.61;79.47
83405;SHT30;73331;48.168;20.776;2024-03-25T02:56:05;2.59;79.56
83405;SHT30;73331;48.168;20.776;2024-03-25T02:57:35;2.52;79.75
83405;SHT30;73331;48.168;20.776;2024-03-25T02:59:06;2.78;79.08
83405;SHT30;73331;48.168;20.776;2024-03-25T03:00:37;2.61;79.42
83405;SHT30;73331;48.168;20.776;2024-03-25T03:02:07;2.56;79.70
83405;SHT30;73331;48.168;20.776;2024-03-25T03:03:38;2.46;79.63
83405;SHT30;73331;48.168;20.776;2024-03-25T03:05:08;2.35;79.92
83405;SHT30;73331;48.168;20.776;2024-03-25T03:06:39;2.35;80.34
83405;SHT30;73331;48.168;20.776;2024-03-25T03:08:09;2.25;80.65
83405;SHT30;73331;48.168;20.776;2024-03-25T03:09:40;2.20;80.73
83405;SHT30;73331;48.168;20.776;2024-03-25T03:11:10;2.15;80.80
83405;SHT30;73331;48.168;20.776;2024-03-25T03:12:41;2.17;81.17
83405;SHT30;73331;48.168;20.776;2024-03-25T03:14:11;2.17;81.13
83405;SHT30;73331;48.168;20.776;2024-03-25T03:15:45;2.34;81.08
83405;SHT30;73331;48.168;20.776;2024-03-25T03:17:15;2.35;81.04
83405;SHT30;73331;48.168;20.776;2024-03-25T03:18:46;2.39;80.74
83405;SHT30;73331;48.168;20.776;2024-03-25T03:20:16;2.45;80.64
83405;SHT30;73331;48.168;20.776;2024-03-25T03:21:46;2.49;80.73
83405;SHT30;73331;48.168;20.776;2024-03-25T03:23:17;2.69;79.86
83405;SHT30;73331;48.168;20.776;2024-03-25T03:24:48;2.68;80.11
83405;SHT30;73331;48.168;20.776;2024-03-25T03:26:18;2.34;79.85
83405;SHT30;73331;48.168;20.776;2024-03-25T03:27:49;2.29;80.72
83405;SHT30;73331;48.168;20.776;2024-03-25T03:29:20;2.35;81.14
83405;SHT30;73331;48.168;20.776;2024-03-25T03:30:50;2.31;80.81
83405;SHT30;73331;48.168;20.776;2024-03-25T03:32:21;2.28;81.18
83405;SHT30;73331;48.168;20.776;2024-03-25T03:33:51;2.41;81.12
83405;SHT30;73331;48.168;20.776;2024-03-25T03:35:22;2.29;81.00
83405;SHT30;73331;48.168;20.776;2024-03-25T03:36:53;2.22;81.26
83405;SHT30;73331;48.168;20.776;2024-03-25T03:38:23;2.07;81.15
83405;SHT30;73331;48.168;20.776;2024-03-25T03:39:54;1.97;81.71
83405;SHT30;73331;48.168;20.776;2024-03-25T03:41:24;1.96;82.18
83405;SHT30;73331;48.168;20.776;2024-03-25T03:42:55;2.03;81.88
83405;SHT30;73331;48.168;20.776;2024-03-25T03:44:25;1.96;82.13
83405;SHT30;73331;48.168;20.776;2024-03-25T03:45:56;1.87;82.02
83405;SHT30;73331;48.168;20.776;2024-03-25T03:47:26;1.81;82.66
83405;SHT30;73331;48.168;20.776;2024-03-25T03:48:57;1.80;82.80
83405;SHT30;73331;48.168;20.776;2024-03-25T03:50:27;1.78;82.90
83405;SHT30;73331;48.168;20.776;2024-03-25T03:51:58;1.78;82.98
83405;SHT30;73331;48.168;20.776;2024-03-25T03:53:28;1.74;83.10
83405;SHT30;73331;48.168;20.776;2024-03-25T03:54:59;1.80;82.85
83405;SHT30;73331;48.168;20.776;2024-03-25T03:56:30;1.70;83.14
83405;SHT30;73331;48.168;20.776;2024-03-25T03:58:00;1.68;83.18
83405;SHT30;73331;48.168;20.776;2024-03-25T03:59:31;1.64;83.39
83405;SHT30;73331;48.168;20.776;2024-03-25T04:01:01;1.64;83.52
83405;SHT30;73331;48.168;20.776;2024-03-25T04:02:34;1.74;83.51
83405;SHT30;73331;48.168;20.776;2024-03-25T04:04:04;2.07;81.75
83405;SHT30;73331;48.168;20.776;2024-03-25T04:05:35;1.96;82.51
83405;SHT30;73331;48.168;20.776;2024-03-25T04:07:05;1.84;82.78
83405;SHT30;73331;48.168;20.776;2024-03-25T04:08:36;1.74;83.24
83405;SHT30;73331;48.168;20.776;2024-03-25T04:10:07;1.64;83.57
83405;SHT30;73331;48.168;20.776;2024-03-25T04:11:37;1.62;83.80
83405;SHT30;73331;48.168;20.776;2024-03-25T04:13:08;1.59;83.97
83405;SHT30;73331;48.168;20.776;2024-03-25T04:14:38;1.73;83.52
83405;SHT30;73331;48.168;20.776;2024-03-25T04:16:09;1.77;83.39
83405;SHT30;73331;48.168;20.776;2024-03-25T04:17:39;1.91;83.30
83405;SHT30;73331;48.168;20.776;2024-03-25T04:19:10;1.80;83.47
83405;SHT30;73331;48.168;20.776;2024-03-25T04:20:41;1.73;83.89
83405;SHT30;73331;48.168;20.776;2024-03-25T04:22:12;2.03;83.61
83405;SHT30;73331;48.168;20.776;2024-03-25T04:23:42;2.31;82.24
83405;SHT30;73331;48.168;20.776;2024-03-25T04:25:15;2.07;82.67
83405;SHT30;73331;48.168;20.776;2024-03-25T04:26:46;1.96;83.45
83405;SHT30;73331;48.168;20.776;2024-03-25T04:28:16;1.94;83.55
83405;SHT30;73331;48.168;20.776;2024-03-25T04:29:47;1.94;83.50
83405;SHT30;73331;48.168;20.776;2024-03-25T04:31:17;1.98;83.38
83405;SHT30;73331;48.168;20.776;2024-03-25T04:32:48;1.96;83.62
83405;SHT30;73331;48.168;20.776;2024-03-25T04:34:18;1.98;83.62
83405;SHT30;73331;48.168;20.776;2024-03-25T04:35:51;2.29;82.81
83405;SHT30;73331;48.168;20.776;2024-03-25T04:37:21;2.21;82.41
83405;SHT30;73331;48.168;20.776;2024-03-25T04:38:51;2.78;81.10
83405;SHT30;73331;48.168;20.776;2024-03-25T04:40:22;2.81;80.19
83405;SHT30;73331;48.168;20.776;2024-03-25T04:41:52;2.68;80.25
83405;SHT30;73331;48.168;20.776;2024-03-25T04:43:23;2.42;81.56
83405;SHT30;73331;48.168;20.776;2024-03-25T04:44:54;2.18;82.33
83405;SHT30;73331;48.168;20.776;2024-03-25T04:46:24;2.31;82.40
83405;SHT30;73331;48.168;20.776;2024-03-25T04:47:55;2.61;80.65
83405;SHT30;73331;48.168;20.776;2024-03-25T04:49:25;2.81;80.21
83405;SHT30;73331;48.168;20.776;2024-03-25T04:50:56;3.02;79.05
83405;SHT30;73331;48.168;20.776;2024-03-25T04:52:26;2.97;78.99
83405;SHT30;73331;48.168;20.776;2024-03-25T04:53:57;2.75;79.48
83405;SHT30;73331;48.168;20.776;2024-03-25T04:55:27;2.63;80.64
83405;SHT30;73331;48.168;20.776;2024-03-25T04:56:58;2.32;82.07
83405;SHT30;73331;48.168;20.776;2024-03-25T04:58:29;2.24;82.76
83405;SHT30;73331;48.168;20.776;2024-03-25T04:59:59;2.38;82.62
83405;SHT30;73331;48.168;20.776;2024-03-25T05:01:29;2.61;81.79
83405;SHT30;73331;48.168;20.776;2024-03-25T05:03:00;2.42;82.26
83405;SHT30;73331;48.168;20.776;2024-03-25T05:04:30;2.44;82.34
83405;SHT30;73331;48.168;20.776;2024-03-25T05:06:01;2.56;82.23
83405;SHT30;73331;48.168;20.776;2024-03-25T05:07:31;2.61;81.53
83405;SHT30;73331;48.168;20.776;2024-03-25T05:09:02;2.52;81.89
83405;SHT30;73331;48.168;20.776;2024-03-25T05:10:33;2.59;81.65
83405;SHT30;73331;48.168;20.776;2024-03-25T05:12:03;2.72;81.59
83405;SHT30;73331;48.168;20.776;2024-03-25T05:13:34;3.30;79.57
83405;SHT30;73331;48.168;20.776;2024-03-25T05:15:05;3.91;76.73
83405;SHT30;73331;48.168;20.776;2024-03-25T05:16:36;4.59;74.35
83405;SHT30;73331;48.168;20.776;2024-03-25T05:18:09;5.45;71.33
83405;SHT30;73331;48.168;20.776;2024-03-25T05:19:41;6.27;68.17
83405;SHT30;73331;48.168;20.776;2024-03-25T05:21:11;7.18;65.33
83405;SHT30;73331;48.168;20.776;2024-03-25T05:22:42;7.52;63.76
83405;SHT30;73331;48.168;20.776;2024-03-25T05:24:12;7.87;62.26
83405;SHT30;73331;48.168;20.776;2024-03-25T05:25:42;8.14;61.50
83405;SHT30;73331;48.168;20.776;2024-03-25T05:27:13;8.45;60.49
83405;SHT30;73331;48.168;20.776;2024-03-25T05:28:43;8.55;60.01
83405;SHT30;73331;48.168;20.776;2024-03-25T05:30:14;8.68;59.75
83405;SHT30;73331;48.168;20.776;2024-03-25T05:32:00;9.31;58.51
83405;SHT30;73331;48.168;20.776;2024-03-25T05:33:31;9.78;56.83
83405;SHT30;73331;48.168;20.776;2024-03-25T05:35:01;10.06;55.34
83405;SHT30;73331;48.168;20.776;2024-03-25T05:36:33;9.90;56.44
83405;SHT30;73331;48.168;20.776;2024-03-25T05:38:04;9.47;57.09
83405;SHT30;73331;48.168;20.776;2024-03-25T05:39:34;9.62;56.29
83405;SHT30;73331;48.168;20.776;2024-03-25T05:41:05;9.75;56.04
83405;SHT30;73331;48.168;20.776;2024-03-25T05:42:35;9.90;56.08
83405;SHT30;73331;48.168;20.776;2024-03-25T05:44:06;10.02;55.61
83405;SHT30;73331;48.168;20.776;2024-03-25T05:45:36;10.15;55.24
83405;SHT30;73331;48.168;20.776;2024-03-25T05:47:06;9.99;55.67
83405;SHT30;73331;48.168;20.776;2024-03-25T05:48:37;10.15;56.23
83405;SHT30;73331;48.168;20.776;2024-03-25T05:50:08;11.23;52.43
83405;SHT30;73331;48.168;20.776;2024-03-25T05:51:38;11.91;50.84
83405;SHT30;73331;48.168;20.776;2024-03-25T05:53:09;11.75;50.44
83405;SHT30;73331;48.168;20.776;2024-03-25T05:54:40;10.70;53.79
83405;SHT30;73331;48.168;20.776;2024-03-25T05:56:10;10.06;54.69
83405;SHT30;73331;48.168;20.776;2024-03-25T05:57:41;10.16;55.77
83405;SHT30;73331;48.168;20.776;2024-03-25T05:59:11;9.87;56.06
83405;SHT30;73331;48.168;20.776;2024-03-25T06:00:42;10.28;55.28
83405;SHT30;73331;48.168;20.776;2024-03-25T06:02:12;10.46;54.69
83405;SHT30;73331;48.168;20.776;2024-03-25T06:03:43;10.95;53.83
83405;SHT30;73331;48.168;20.776;2024-03-25T06:05:13;10.72;53.87
83405;SHT30;73331;48.168;20.776;2024-03-25T06:06:44;11.55;52.33
83405;SHT30;73331;48.168;20.776;2024-03-25T06:08:15;11.89;51.13
83405;SHT30;73331;48.168;20.776;2024-03-25T06:09:55;12.61;49.62
83405;SHT30;73331;48.168;20.776;2024-03-25T06:11:25;12.96;48.32
83405;SHT30;73331;48.168;20.776;2024-03-25T06:12:56;13.12;48.26
83405;SHT30;73331;48.168;20.776;2024-03-25T06:14:26;13.19;47.97
83405;SHT30;73331;48.168;20.776;2024-03-25T06:15:59;12.29;49.56
83405;SHT30;73331;48.168;20.776;2024-03-25T06:17:29;12.16;49.61
83405;SHT30;73331;48.168;20.776;2024-03-25T06:19:00;12.40;49.41
83405;SHT30;73331;48.168;20.776;2024-03-25T06:20:30;11.95;51.33
83405;SHT30;73331;48.168;20.776;2024-03-25T06:22:01;11.88;51.06
83405;SHT30;73331;48.168;20.776;2024-03-25T06:23:31;12.01;51.15
83405;SHT30;73331;48.168;20.776;2024-03-25T06:25:02;11.47;52.40
83405;SHT30;73331;48.168;20.776;2024-03-25T06:26:32;11.72;52.30
83405;SHT30;73331;48.168;20.776;2024-03-25T06:28:03;11.99;50.98
83405;SHT30;73331;48.168;20.776;2024-03-25T06:29:34;12.03;51.19
83405;SHT30;73331;48.168;20.776;2024-03-25T06:31:05;11.03;54.01
83405;SHT30;73331;48.168;20.776;2024-03-25T06:32:54;9.80;58.05
83405;SHT30;73331;48.168;20.776;2024-03-25T06:34:44;10.04;57.04
83405;SHT30;73331;48.168;20.776;2024-03-25T06:36:14;10.62;55.59
83405;SHT30;73331;48.168;20.776;2024-03-25T06:37:45;10.06;57.09
83405;SHT30;73331;48.168;20.776;2024-03-25T06:39:15;9.65;58.59
83405;SHT30;73331;48.168;20.776;2024-03-25T06:40:46;9.84;58.13
83405;SHT30;73331;48.168;20.776;2024-03-25T06:42:16;9.33;60.59
83405;SHT30;73331;48.168;20.776;2024-03-25T06:43:47;9.61;59.95
83405;SHT30;73331;48.168;20.776;2024-03-25T06:45:17;9.46;60.12
83405;SHT30;73331;48.168;20.776;2024-03-25T06:46:48;9.85;57.57
83405;SHT30;73331;48.168;20.776;2024-03-25T06:48:18;9.85;58.72
83405;SHT30;73331;48.168;20.776;2024-03-25T06:49:49;9.48;60.17
83405;SHT30;73331;48.168;20.776;2024-03-25T06:51:20;9.51;60.38
83405;SHT30;73331;48.168;20.776;2024-03-25T06:52:50;10.18;58.02
83405;SHT30;73331;48.168;20.776;2024-03-25T06:54:21;9.62;58.18
83405;SHT30;73331;48.168;20.776;2024-03-25T06:56:00;9.52;57.68
83405;SHT30;73331;48.168;20.776;2024-03-25T06:57:31;9.51;58.52
83405;SHT30;73331;48.168;20.776;2024-03-25T06:59:02;9.36;58.32
83405;SHT30;73331;48.168;20.776;2024-03-25T07:00:34;9.62;58.08
83405;SHT30;73331;48.168;20.776;2024-03-25T07:02:05;9.40;57.79
83405;SHT30;73331;48.168;20.776;2024-03-25T07:03:35;9.61;57.94
83405;SHT30;73331;48.168;20.776;2024-03-25T07:05:06;10.08;56.04
83405;SHT30;73331;48.168;20.776;2024-03-25T07:06:37;10.09;55.13
83405;SHT30;73331;48.168;20.776;2024-03-25T07:08:08;9.97;55.08
83405;SHT30;73331;48.168;20.776;2024-03-25T07:09:38;9.97;55.20
83405;SHT30;73331;48.168;20.776;2024-03-25T07:11:09;9.78;55.55
83405;SHT30;73331;48.168;20.776;2024-03-25T07:12:39;10.06;55.86
83405;SHT30;73331;48.168;20.776;2024-03-25T07:14:10;9.90;56.23
83405;SHT30;73331;48.168;20.776;2024-03-25T07:15:40;10.29;57.00
83405;SHT30;73331;48.168;20.776;2024-03-25T07:17:12;11.04;53.46
83405;SHT30;73331;48.168;20.776;2024-03-25T07:18:43;11.06;53.21
83405;SHT30;73331;48.168;20.776;2024-03-25T07:20:13;10.99;52.14
83405;SHT30;73331;48.168;20.776;2024-03-25T07:21:44;10.29;54.64
83405;SHT30;73331;48.168;20.776;2024-03-25T07:23:14;10.53;53.77
83405;SHT30;73331;48.168;20.776;2024-03-25T07:24:45;10.75;53.94
83405;SHT30;73331;48.168;20.776;2024-03-25T07:26:15;10.81;53.37
83405;SHT30;73331;48.168;20.776;2024-03-25T07:27:46;10.70;55.04
83405;SHT30;73331;48.168;20.776;2024-03-25T07:29:17;10.53;54.84
83405;SHT30;73331;48.168;20.776;2024-03-25T07:30:50;10.75;54.11
83405;SHT30;73331;48.168;20.776;2024-03-25T07:32:20;11.00;54.02
83405;SHT30;73331;48.168;20.776;2024-03-25T07:33:51;11.18;52.54
83405;SHT30;73331;48.168;20.776;2024-03-25T07:35:22;11.01;53.44
83405;SHT30;73331;48.168;20.776;2024-03-25T07:36:53;11.30;52.24
83405;SHT30;73331;48.168;20.776;2024-03-25T07:38:23;11.68;51.53
83405;SHT30;73331;48.168;20.776;2024-03-25T07:39:54;11.88;51.36
83405;SHT30;73331;48.168;20.776;2024-03-25T07:41:25;11.61;51.18
83405;SHT30;73331;48.168;20.776;2024-03-25T07:42:56;11.79;52.08
83405;SHT30;73331;48.168;20.776;2024-03-25T07:44:26;12.33;50.22
83405;SHT30;73331;48.168;20.776;2024-03-25T07:45:57;12.50;49.89
83405;SHT30;73331;48.168;20.776;2024-03-25T07:47:27;12.86;48.75
83405;SHT30;73331;48.168;20.776;2024-03-25T07:48:58;12.96;48.50
83405;SHT30;73331;48.168;20.776;2024-03-25T07:50:28;12.74;48.47
83405;SHT30;73331;48.168;20.776;2024-03-25T07:52:00;12.63;48.26
83405;SHT30;73331;48.168;20.776;2024-03-25T07:53:31;13.31;47.63
83405;SHT30;73331;48.168;20.776;2024-03-25T07:55:02;13.12;47.21
83405;SHT30;73331;48.168;20.776;2024-03-25T07:56:32;13.49;46.77
83405;SHT30;73331;48.168;20.776;2024-03-25T07:58:07;13.07;46.56
83405;SHT30;73331;48.168;20.776;2024-03-25T07:59:37;12.76;47.93
83405;SHT30;73331;48.168;20.776;2024-03-25T08:01:08;12.57;46.90
83405;SHT30;73331;48.168;20.776;2024-03-25T08:02:38;12.91;46.10
83405;SHT30;73331;48.168;20.776;2024-03-25T08:04:09;13.39;44.85
83405;SHT30;73331;48.168;20.776;2024-03-25T08:05:39;13.00;46.46
83405;SHT30;73331;48.168;20.776;2024-03-25T08:07:10;12.87;47.16
83405;SHT30;73331;48.168;20.776;2024-03-25T08:08:40;13.55;45.55
83405;SHT30;73331;48.168;20.776;2024-03-25T08:10:11;13.69;44.39
83405;SHT30;73331;48.168;20.776;2024-03-25T08:11:41;13.83;44.11
83405;SHT30;73331;48.168;20.776;2024-03-25T08:13:15;13.51;44.49
83405;SHT30;73331;48.168;20.776;2024-03-25T08:14:45;13.66;44.57
83405;SHT30;73331;48.168;20.776;2024-03-25T08:16:16;14.36;43.17
83405;SHT30;73331;48.168;20.776;2024-03-25T08:17:47;13.37;44.74
83405;SHT30;73331;48.168;20.776;2024-03-25T08:19:17;14.17;43.15
83405;SHT30;73331;48.168;20.776;2024-03-25T08:20:48;14.61;42.34
83405;SHT30;73331;48.168;20.776;2024-03-25T08:22:18;14.19;44.09
83405;SHT30;73331;48.168;20.776;2024-03-25T08:23:50;13.87;44.53
83405;SHT30;73331;48.168;20.776;2024-03-25T08:25:21;13.54;44.66
83405;SHT30;73331;48.168;20.776;2024-03-25T08:26:52;13.58;44.97
83405;SHT30;73331;48.168;20.776;2024-03-25T08:28:22;13.61;44.68
83405;SHT30;73331;48.168;20.776;2024-03-25T08:29:53;13.37;44.39
83405;SHT30;73331;48.168;20.776;2024-03-25T08:31:24;13.10;45.03
83405;SHT30;73331;48.168;20.776;2024-03-25T08:32:55;13.61;44.33
83405;SHT30;73331;48.168;20.776;2024-03-25T08:34:25;14.03;42.77
83405;SHT30;73331;48.168;20.776;2024-03-25T08:35:56;14.81;41.89
83405;SHT30;73331;48.168;20.776;2024-03-25T08:37:27;14.56;42.41
83405;SHT30;73331;48.168;20.776;2024-03-25T08:38:57;14.83;42.24
83405;SHT30;73331;48.168;20.776;2024-03-25T08:40:28;14.68;41.85
83405;SHT30;73331;48.168;20.776;2024-03-25T08:41:58;13.86;43.92
83405;SHT30;73331;48.168;20.776;2024-03-25T08:43:29;14.53;42.40
83405;SHT30;73331;48.168;20.776;2024-03-25T08:44:59;13.59;44.41
83405;SHT30;73331;48.168;20.776;2024-03-25T08:46:30;13.75;45.17
83405;SHT30;73331;48.168;20.776;2024-03-25T08:48:01;14.13;43.73
83405;SHT30;73331;48.168;20.776;2024-03-25T08:49:32;14.23;42.65
83405;SHT30;73331;48.168;20.776;2024-03-25T08:51:02;13.28;45.11
83405;SHT30;73331;48.168;20.776;2024-03-25T08:52:34;14.06;43.96
83405;SHT30;73331;48.168;20.776;2024-03-25T08:54:04;13.98;43.99
83405;SHT30;73331;48.168;20.776;2024-03-25T08:55:35;13.39;45.50
83405;SHT30;73331;48.168;20.776;2024-03-25T08:57:06;12.93;46.41
83405;SHT30;73331;48.168;20.776;2024-03-25T08:58:36;12.79;46.04
83405;SHT30;73331;48.168;20.776;2024-03-25T09:00:07;12.57;46.66
83405;SHT30;73331;48.168;20.776;2024-03-25T09:01:42;12.29;47.36
83405;SHT30;73331;48.168;20.776;2024-03-25T09:03:12;12.22;47.80
83405;SHT30;73331;48.168;20.776;2024-03-25T09:04:44;12.33;47.60
83405;SHT30;73331;48.168;20.776;2024-03-25T09:06:15;12.19;47.60
83405;SHT30;73331;48.168;20.776;2024-03-25T09:07:49;12.32;46.90
83405;SHT30;73331;48.168;20.776;2024-03-25T09:09:22;12.37;45.98
83405;SHT30;73331;48.168;20.776;2024-03-25T09:11:11;11.85;46.57
83405;SHT30;73331;48.168;20.776;2024-03-25T09:12:41;11.67;47.62
83405;SHT30;73331;48.168;20.776;2024-03-25T09:14:13;11.51;48.21
83405;SHT30;73331;48.168;20.776;2024-03-25T09:15:43;11.60;48.72
83405;SHT30;73331;48.168;20.776;2024-03-25T09:17:14;11.61;48.74
83405;SHT30;73331;48.168;20.776;2024-03-25T09:18:46;11.60;48.82
83405;SHT30;73331;48.168;20.776;2024-03-25T09:20:16;11.34;49.35
83405;SHT30;73331;48.168;20.776;2024-03-25T09:21:47;11.28;49.80
83405;SHT30;73331;48.168;20.776;2024-03-25T09:23:18;11.45;50.17
83405;SHT30;73331;48.168;20.776;2024-03-25T09:24:48;11.89;49.02
83405;SHT30;73331;48.168;20.776;2024-03-25T09:26:19;12.05;48.07
83405;SHT30;73331;48.168;20.776;2024-03-25T09:27:50;12.46;46.94
83405;SHT30;73331;48.168;20.776;2024-03-25T09:29:21;12.77;47.19
83405;SHT30;73331;48.168;20.776;2024-03-25T09:30:52;13.01;47.27
83405;SHT30;73331;48.168;20.776;2024-03-25T09:32:23;12.81;47.43